sensor_id;sensor_type;location;lat;lon;timestamp;temperature;humidity
55870;DHT22;41790;50.940;4.560;2023-02-24T00:01:38;8.70;74.40
55870;DHT22;41790;50.940;4.560;2023-02-24T00:04:10;8.50;75.40
55870;DHT22;41790;50.940;4.560;2023-02-24T00:06:41;8.60;75.20
55870;DHT22;41790;50.940;4.560;2023-02-24T00:11:39;8.60;74.80
55870;DHT22;41790;50.940;4.560;2023-02-24T00:14:07;8.70;74.20
55870;DHT22;41790;50.940;4.560;2023-02-24T00:16:34;8.70;74.10
55870;DHT22;41790;50.940;4.560;2023-02-24T00:19:00;8.60;74.30
55870;DHT22;41790;50.940;4.560;2023-02-24T00:21:27;8.60;74.40
55870;DHT22;41790;50.940;4.560;2023-02-24T00:23:56;8.60;73.90
55870;DHT22;41790;50.940;4.560;2023-02-24T00:26:24;8.70;74.00
55870;DHT22;41790;50.940;4.560;2023-02-24T00:28:51;8.70;74.10
55870;DHT22;41790;50.940;4.560;2023-02-24T00:31:18;8.80;73.90
55870;DHT22;41790;50.940;4.560;2023-02-24T00:33:45;8.90;73.60
55870;DHT22;41790;50.940;4.560;2023-02-24T00:36:16;9.00;73.50
55870;DHT22;41790;50.940;4.560;2023-02-24T00:38:54;9.10;72.50
55870;DHT22;41790;50.940;4.560;2023-02-24T00:41:26;9.00;73.60
55870;DHT22;41790;50.940;4.560;2023-02-24T00:44:01;9.00;73.40
55870;DHT22;41790;50.940;4.560;2023-02-24T00:46:45;9.00;73.50
55870;DHT22;41790;50.940;4.560;2023-02-24T00:49:14;8.90;73.30
55870;DHT22;41790;50.940;4.560;2023-02-24T00:51:46;8.60;74.40
55870;DHT22;41790;50.940;4.560;2023-02-24T00:54:13;8.60;74.90
55870;DHT22;41790;50.940;4.560;2023-02-24T00:56:45;8.70;74.30
55870;DHT22;41790;50.940;4.560;2023-02-24T00:59:14;8.50;74.80
55870;DHT22;41790;50.940;4.560;2023-02-24T01:01:41;8.50;74.50
55870;DHT22;41790;50.940;4.560;2023-02-24T01:04:09;8.40;75.50
55870;DHT22;41790;50.940;4.560;2023-02-24T01:06:41;8.50;75.60
55870;DHT22;41790;50.940;4.560;2023-02-24T01:09:15;8.40;75.20
55870;DHT22;41790;50.940;4.560;2023-02-24T01:11:44;8.30;76.60
55870;DHT22;41790;50.940;4.560;2023-02-24T01:14:31;8.40;76.20
55870;DHT22;41790;50.940;4.560;2023-02-24T01:16:58;8.50;76.50
55870;DHT22;41790;50.940;4.560;2023-02-24T01:19:29;8.50;75.70
55870;DHT22;41790;50.940;4.560;2023-02-24T01:21:57;8.60;75.60
55870;DHT22;41790;50.940;4.560;2023-02-24T01:24:26;8.60;75.90
55870;DHT22;41790;50.940;4.560;2023-02-24T01:26:53;8.50;76.20
55870;DHT22;41790;50.940;4.560;2023-02-24T01:29:19;8.40;76.00
55870;DHT22;41790;50.940;4.560;2023-02-24T01:31:52;8.50;76.70
55870;DHT22;41790;50.940;4.560;2023-02-24T01:34:26;8.50;75.80
55870;DHT22;41790;50.940;4.560;2023-02-24T01:36:55;8.40;76.60
55870;DHT22;41790;50.940;4.560;2023-02-24T01:39:21;8.00;76.50
55870;DHT22;41790;50.940;4.560;2023-02-24T01:41:48;7.70;78.60
55870;DHT22;41790;50.940;4.560;2023-02-24T01:46:48;7.60;79.10
55870;DHT22;41790;50.940;4.560;2023-02-24T01:49:22;7.70;78.80
55870;DHT22;41790;50.940;4.560;2023-02-24T01:52:08;7.60;80.00
55870;DHT22;41790;50.940;4.560;2023-02-24T01:54:39;7.50;80.00
55870;DHT22;41790;50.940;4.560;2023-02-24T01:57:08;7.40;78.60
55870;DHT22;41790;50.940;4.560;2023-02-24T01:59:35;7.50;79.60
55870;DHT22;41790;50.940;4.560;2023-02-24T02:02:04;7.60;78.60
55870;DHT22;41790;50.940;4.560;2023-02-24T02:04:41;7.70;77.50
55870;DHT22;41790;50.940;4.560;2023-02-24T02:07:08;7.90;76.60
55870;DHT22;41790;50.940;4.560;2023-02-24T02:09:36;7.70;77.20
55870;DHT22;41790;50.940;4.560;2023-02-24T02:12:02;7.90;76.90
55870;DHT22;41790;50.940;4.560;2023-02-24T02:14:29;7.90;75.60
55870;DHT22;41790;50.940;4.560;2023-02-24T02:24:54;8.40;73.50
55870;DHT22;41790;50.940;4.560;2023-02-24T02:27:41;8.30;72.80
55870;DHT22;41790;50.940;4.560;2023-02-24T02:36:03;8.40;73.00
55870;DHT22;41790;50.940;4.560;2023-02-24T02:44:08;8.70;72.10
55870;DHT22;41790;50.940;4.560;2023-02-24T02:46:47;8.70;72.20
55870;DHT22;41790;50.940;4.560;2023-02-24T02:49:20;8.50;70.40
55870;DHT22;41790;50.940;4.560;2023-02-24T02:51:54;8.50;70.90
55870;DHT22;41790;50.940;4.560;2023-02-24T02:54:34;8.60;71.10
55870;DHT22;41790;50.940;4.560;2023-02-24T02:57:08;8.60;71.40
55870;DHT22;41790;50.940;4.560;2023-02-24T02:59:44;8.60;71.50
55870;DHT22;41790;50.940;4.560;2023-02-24T03:02:15;8.70;71.50
55870;DHT22;41790;50.940;4.560;2023-02-24T03:04:48;8.80;71.00
55870;DHT22;41790;50.940;4.560;2023-02-24T03:07:19;8.90;71.10
55870;DHT22;41790;50.940;4.560;2023-02-24T03:09:52;8.90;70.50
55870;DHT22;41790;50.940;4.560;2023-02-24T03:12:23;8.90;71.80
55870;DHT22;41790;50.940;4.560;2023-02-24T03:14:56;8.90;70.90
55870;DHT22;41790;50.940;4.560;2023-02-24T03:17:25;8.90;70.40
55870;DHT22;41790;50.940;4.560;2023-02-24T03:20:00;8.80;70.40
55870;DHT22;41790;50.940;4.560;2023-02-24T03:22:42;8.70;69.80
55870;DHT22;41790;50.940;4.560;2023-02-24T03:25:12;8.60;70.30
55870;DHT22;41790;50.940;4.560;2023-02-24T03:27:54;8.70;69.60
55870;DHT22;41790;50.940;4.560;2023-02-24T03:33:24;8.60;69.90
55870;DHT22;41790;50.940;4.560;2023-02-24T03:35:54;8.40;70.60
55870;DHT22;41790;50.940;4.560;2023-02-24T03:38:26;8.50;71.40
55870;DHT22;41790;50.940;4.560;2023-02-24T03:40:56;8.50;71.70
55870;DHT22;41790;50.940;4.560;2023-02-24T03:43:29;8.50;71.70
55870;DHT22;41790;50.940;4.560;2023-02-24T03:45:56;8.50;71.80
55870;DHT22;41790;50.940;4.560;2023-02-24T03:48:26;8.50;71.40
55870;DHT22;41790;50.940;4.560;2023-02-24T03:50:52;8.60;70.30
55870;DHT22;41790;50.940;4.560;2023-02-24T04:01:15;8.30;69.90
55870;DHT22;41790;50.940;4.560;2023-02-24T04:06:43;8.20;70.50
55870;DHT22;41790;50.940;4.560;2023-02-24T04:15:09;8.10;72.10
55870;DHT22;41790;50.940;4.560;2023-02-24T04:17:41;8.20;72.10
55870;DHT22;41790;50.940;4.560;2023-02-24T04:20:10;8.20;71.80
55870;DHT22;41790;50.940;4.560;2023-02-24T04:22:43;8.20;71.60
55870;DHT22;41790;50.940;4.560;2023-02-24T04:25:16;8.20;72.00
55870;DHT22;41790;50.940;4.560;2023-02-24T04:27:44;8.20;72.40
55870;DHT22;41790;50.940;4.560;2023-02-24T04:30:13;8.10;72.70
55870;DHT22;41790;50.940;4.560;2023-02-24T04:32:39;8.20;72.00
55870;DHT22;41790;50.940;4.560;2023-02-24T04:35:12;8.10;72.70
55870;DHT22;41790;50.940;4.560;2023-02-24T04:37:38;8.00;72.80
55870;DHT22;41790;50.940;4.560;2023-02-24T04:40:12;7.80;73.40
55870;DHT22;41790;50.940;4.560;2023-02-24T04:42:40;7.80;73.80
55870;DHT22;41790;50.940;4.560;2023-02-24T04:45:12;7.80;73.90
55870;DHT22;41790;50.940;4.560;2023-02-24T04:47:41;7.60;73.90
55870;DHT22;41790;50.940;4.560;2023-02-24T04:50:08;7.30;74.90
55870;DHT22;41790;50.940;4.560;2023-02-24T04:52:36;7.20;75.30
55870;DHT22;41790;50.940;4.560;2023-02-24T04:55:04;7.10;75.50
55870;DHT22;41790;50.940;4.560;2023-02-24T04:57:35;7.40;74.90
55870;DHT22;41790;50.940;4.560;2023-02-24T05:00:05;7.50;74.50
55870;DHT22;41790;50.940;4.560;2023-02-24T05:02:37;7.40;74.70
55870;DHT22;41790;50.940;4.560;2023-02-24T05:05:04;7.40;74.90
55870;DHT22;41790;50.940;4.560;2023-02-24T05:07:32;7.30;75.50
55870;DHT22;41790;50.940;4.560;2023-02-24T05:09:58;7.20;75.20
55870;DHT22;41790;50.940;4.560;2023-02-24T05:12:24;7.40;75.50
55870;DHT22;41790;50.940;4.560;2023-02-24T05:14:50;7.40;74.90
55870;DHT22;41790;50.940;4.560;2023-02-24T05:17:16;7.50;74.30
55870;DHT22;41790;50.940;4.560;2023-02-24T05:19:43;7.60;74.40
55870;DHT22;41790;50.940;4.560;2023-02-24T05:22:27;7.80;74.00
55870;DHT22;41790;50.940;4.560;2023-02-24T05:24:53;7.80;73.00
55870;DHT22;41790;50.940;4.560;2023-02-24T05:27:24;8.00;73.10
55870;DHT22;41790;50.940;4.560;2023-02-24T05:29:52;8.10;73.50
55870;DHT22;41790;50.940;4.560;2023-02-24T05:32:20;8.10;73.00
55870;DHT22;41790;50.940;4.560;2023-02-24T05:34:46;7.90;73.80
55870;DHT22;41790;50.940;4.560;2023-02-24T05:37:14;7.80;74.00
55870;DHT22;41790;50.940;4.560;2023-02-24T05:39:41;7.80;74.40
55870;DHT22;41790;50.940;4.560;2023-02-24T05:42:07;7.60;74.50
55870;DHT22;41790;50.940;4.560;2023-02-24T05:44:33;7.50;74.90
55870;DHT22;41790;50.940;4.560;2023-02-24T05:47:00;7.50;75.10
55870;DHT22;41790;50.940;4.560;2023-02-24T05:49:32;7.30;75.90
55870;DHT22;41790;50.940;4.560;2023-02-24T05:52:00;7.30;76.20
55870;DHT22;41790;50.940;4.560;2023-02-24T05:54:30;7.30;76.20
55870;DHT22;41790;50.940;4.560;2023-02-24T05:57:09;7.30;76.00
55870;DHT22;41790;50.940;4.560;2023-02-24T05:59:40;7.60;75.20
55870;DHT22;41790;50.940;4.560;2023-02-24T06:02:09;7.50;74.50
55870;DHT22;41790;50.940;4.560;2023-02-24T06:04:43;7.50;74.40
55870;DHT22;41790;50.940;4.560;2023-02-24T06:09:53;7.50;74.50
55870;DHT22;41790;50.940;4.560;2023-02-24T06:12:23;7.50;74.60
55870;DHT22;41790;50.940;4.560;2023-02-24T06:14:51;7.50;74.80
55870;DHT22;41790;50.940;4.560;2023-02-24T06:17:18;7.70;74.10
55870;DHT22;41790;50.940;4.560;2023-02-24T06:19:46;7.40;73.90
55870;DHT22;41790;50.940;4.560;2023-02-24T06:22:19;7.40;74.40
55870;DHT22;41790;50.940;4.560;2023-02-24T06:24:46;7.20;74.50
55870;DHT22;41790;50.940;4.560;2023-02-24T06:27:15;7.10;75.20
55870;DHT22;41790;50.940;4.560;2023-02-24T06:29:47;7.10;74.90
55870;DHT22;41790;50.940;4.560;2023-02-24T06:32:17;7.00;75.60
55870;DHT22;41790;50.940;4.560;2023-02-24T06:34:43;7.10;75.60
55870;DHT22;41790;50.940;4.560;2023-02-24T06:37:11;7.10;75.40
55870;DHT22;41790;50.940;4.560;2023-02-24T06:39:40;7.20;74.90
55870;DHT22;41790;50.940;4.560;2023-02-24T06:42:06;7.20;74.70
55870;DHT22;41790;50.940;4.560;2023-02-24T06:44:37;7.10;75.00
55870;DHT22;41790;50.940;4.560;2023-02-24T06:47:04;7.20;74.50
55870;DHT22;41790;50.940;4.560;2023-02-24T06:49:31;7.20;74.60
55870;DHT22;41790;50.940;4.560;2023-02-24T06:51:58;7.10;74.70
55870;DHT22;41790;50.940;4.560;2023-02-24T06:54:26;7.20;74.50
55870;DHT22;41790;50.940;4.560;2023-02-24T06:56:58;7.10;74.70
55870;DHT22;41790;50.940;4.560;2023-02-24T06:59:25;7.20;74.20
55870;DHT22;41790;50.940;4.560;2023-02-24T07:01:54;7.20;74.60
55870;DHT22;41790;50.940;4.560;2023-02-24T07:04:21;7.10;74.50
55870;DHT22;41790;50.940;4.560;2023-02-24T07:06:54;7.10;74.00
55870;DHT22;41790;50.940;4.560;2023-02-24T07:09:23;7.10;73.80
55870;DHT22;41790;50.940;4.560;2023-02-24T07:11:51;7.20;73.80
55870;DHT22;41790;50.940;4.560;2023-02-24T07:14:19;7.10;73.60
55870;DHT22;41790;50.940;4.560;2023-02-24T07:16:48;7.00;74.20
55870;DHT22;41790;50.940;4.560;2023-02-24T07:19:20;6.80;74.40
55870;DHT22;41790;50.940;4.560;2023-02-24T07:21:46;6.90;75.10
55870;DHT22;41790;50.940;4.560;2023-02-24T07:24:16;7.00;74.40
55870;DHT22;41790;50.940;4.560;2023-02-24T07:27:00;6.90;74.90
55870;DHT22;41790;50.940;4.560;2023-02-24T07:29:28;6.90;75.10
55870;DHT22;41790;50.940;4.560;2023-02-24T07:31:54;6.80;75.10
55870;DHT22;41790;50.940;4.560;2023-02-24T07:34:24;6.90;75.80
55870;DHT22;41790;50.940;4.560;2023-02-24T07:36:54;6.80;75.20
55870;DHT22;41790;50.940;4.560;2023-02-24T07:39:21;6.90;76.20
55870;DHT22;41790;50.940;4.560;2023-02-24T07:41:51;6.80;75.90
55870;DHT22;41790;50.940;4.560;2023-02-24T07:44:20;6.80;75.70
55870;DHT22;41790;50.940;4.560;2023-02-24T07:46:50;6.90;75.70
55870;DHT22;41790;50.940;4.560;2023-02-24T07:49:20;7.00;75.00
55870;DHT22;41790;50.940;4.560;2023-02-24T07:51:49;6.80;75.70
55870;DHT22;41790;50.940;4.560;2023-02-24T07:54:18;6.80;75.70
55870;DHT22;41790;50.940;4.560;2023-02-24T07:56:45;6.90;76.10
55870;DHT22;41790;50.940;4.560;2023-02-24T07:59:21;6.90;76.40
55870;DHT22;41790;50.940;4.560;2023-02-24T08:01:47;7.00;76.00
55870;DHT22;41790;50.940;4.560;2023-02-24T08:04:22;7.20;75.20
55870;DHT22;41790;50.940;4.560;2023-02-24T08:06:48;7.20;73.70
55870;DHT22;41790;50.940;4.560;2023-02-24T08:09:23;7.00;74.30
55870;DHT22;41790;50.940;4.560;2023-02-24T08:12:20;7.20;73.60
55870;DHT22;41790;50.940;4.560;2023-02-24T08:14:51;7.10;74.10
55870;DHT22;41790;50.940;4.560;2023-02-24T08:17:24;7.00;74.60
55870;DHT22;41790;50.940;4.560;2023-02-24T08:19:51;7.00;74.60
55870;DHT22;41790;50.940;4.560;2023-02-24T08:22:49;6.90;74.80
55870;DHT22;41790;50.940;4.560;2023-02-24T08:25:28;6.90;74.50
55870;DHT22;41790;50.940;4.560;2023-02-24T08:28:00;6.90;75.00
55870;DHT22;41790;50.940;4.560;2023-02-24T08:30:31;6.90;74.80
55870;DHT22;41790;50.940;4.560;2023-02-24T08:33:05;7.00;75.30
55870;DHT22;41790;50.940;4.560;2023-02-24T08:35:33;6.90;75.40
55870;DHT22;41790;50.940;4.560;2023-02-24T08:38:08;6.80;74.90
55870;DHT22;41790;50.940;4.560;2023-02-24T08:40:42;6.90;75.30
55870;DHT22;41790;50.940;4.560;2023-02-24T08:43:25;7.00;75.50
55870;DHT22;41790;50.940;4.560;2023-02-24T08:48:57;7.30;73.10
55870;DHT22;41790;50.940;4.560;2023-02-24T08:51:32;7.30;73.00
55870;DHT22;41790;50.940;4.560;2023-02-24T08:54:08;7.30;72.50
55870;DHT22;41790;50.940;4.560;2023-02-24T08:56:40;7.40;73.20
55870;DHT22;41790;50.940;4.560;2023-02-24T08:59:15;7.30;72.40
55870;DHT22;41790;50.940;4.560;2023-02-24T09:01:59;7.40;72.20
55870;DHT22;41790;50.940;4.560;2023-02-24T09:04:54;7.50;71.00
55870;DHT22;41790;50.940;4.560;2023-02-24T09:07:26;7.70;70.50
55870;DHT22;41790;50.940;4.560;2023-02-24T09:09:53;7.50;72.00
55870;DHT22;41790;50.940;4.560;2023-02-24T09:12:26;7.40;71.70
55870;DHT22;41790;50.940;4.560;2023-02-24T09:15:02;7.40;71.60
55870;DHT22;41790;50.940;4.560;2023-02-24T09:17:32;7.30;70.90
55870;DHT22;41790;50.940;4.560;2023-02-24T09:20:13;7.40;72.40
55870;DHT22;41790;50.940;4.560;2023-02-24T09:22:58;7.40;71.00
55870;DHT22;41790;50.940;4.560;2023-02-24T09:25:37;7.50;71.20
55870;DHT22;41790;50.940;4.560;2023-02-24T09:28:17;7.50;71.60
55870;DHT22;41790;50.940;4.560;2023-02-24T09:30:49;7.90;70.70
55870;DHT22;41790;50.940;4.560;2023-02-24T09:36:05;8.30;69.10
55870;DHT22;41790;50.940;4.560;2023-02-24T09:38:51;8.20;68.70
55870;DHT22;41790;50.940;4.560;2023-02-24T09:47:08;8.30;68.20
55870;DHT22;41790;50.940;4.560;2023-02-24T09:49:48;8.10;67.50
55870;DHT22;41790;50.940;4.560;2023-02-24T09:52:17;8.30;67.10
55870;DHT22;41790;50.940;4.560;2023-02-24T09:54:48;8.40;67.20
55870;DHT22;41790;50.940;4.560;2023-02-24T09:57:40;8.40;69.00
55870;DHT22;41790;50.940;4.560;2023-02-24T10:00:29;8.40;66.10
55870;DHT22;41790;50.940;4.560;2023-02-24T10:03:30;8.40;64.60
55870;DHT22;41790;50.940;4.560;2023-02-24T10:06:21;8.40;63.70
55870;DHT22;41790;50.940;4.560;2023-02-24T10:08:53;8.10;65.60
55870;DHT22;41790;50.940;4.560;2023-02-24T10:11:20;8.20;66.30
55870;DHT22;41790;50.940;4.560;2023-02-24T10:13:59;8.10;67.70
55870;DHT22;41790;50.940;4.560;2023-02-24T10:16:26;8.10;67.40
55870;DHT22;41790;50.940;4.560;2023-02-24T10:19:26;8.10;67.50
55870;DHT22;41790;50.940;4.560;2023-02-24T10:22:09;8.00;67.00
55870;DHT22;41790;50.940;4.560;2023-02-24T10:24:59;7.80;68.30
55870;DHT22;41790;50.940;4.560;2023-02-24T10:30:15;8.10;66.70
55870;DHT22;41790;50.940;4.560;2023-02-24T10:32:57;8.10;67.50
55870;DHT22;41790;50.940;4.560;2023-02-24T10:35:27;8.10;67.70
55870;DHT22;41790;50.940;4.560;2023-02-24T10:38:01;8.00;68.00
55870;DHT22;41790;50.940;4.560;2023-02-24T10:40:42;7.90;68.20
55870;DHT22;41790;50.940;4.560;2023-02-24T10:43:18;8.00;68.00
55870;DHT22;41790;50.940;4.560;2023-02-24T10:45:45;7.90;68.60
55870;DHT22;41790;50.940;4.560;2023-02-24T10:48:18;8.00;68.70
55870;DHT22;41790;50.940;4.560;2023-02-24T10:50:52;8.10;67.70
55870;DHT22;41790;50.940;4.560;2023-02-24T10:53:33;8.20;67.20
55870;DHT22;41790;50.940;4.560;2023-02-24T10:56:07;8.20;68.70
55870;DHT22;41790;50.940;4.560;2023-02-24T10:59:17;8.20;68.40
55870;DHT22;41790;50.940;4.560;2023-02-24T11:02:01;8.10;69.00
55870;DHT22;41790;50.940;4.560;2023-02-24T11:04:36;8.20;67.10
55870;DHT22;41790;50.940;4.560;2023-02-24T11:07:29;8.30;66.50
55870;DHT22;41790;50.940;4.560;2023-02-24T11:10:13;8.40;65.40
55870;DHT22;41790;50.940;4.560;2023-02-24T11:12:47;8.50;67.80
55870;DHT22;41790;50.940;4.560;2023-02-24T11:15:37;8.50;66.50
55870;DHT22;41790;50.940;4.560;2023-02-24T11:18:26;8.50;66.90
55870;DHT22;41790;50.940;4.560;2023-02-24T11:21:08;8.60;66.00
55870;DHT22;41790;50.940;4.560;2023-02-24T11:24:05;8.70;64.80
55870;DHT22;41790;50.940;4.560;2023-02-24T11:26:34;8.60;66.10
55870;DHT22;41790;50.940;4.560;2023-02-24T11:42:39;8.90;64.60
55870;DHT22;41790;50.940;4.560;2023-02-24T11:47:56;9.20;64.60
55870;DHT22;41790;50.940;4.560;2023-02-24T11:53:35;9.20;64.70
55870;DHT22;41790;50.940;4.560;2023-02-24T11:56:07;9.10;64.30
55870;DHT22;41790;50.940;4.560;2023-02-24T12:03:38;9.10;66.20
55870;DHT22;41790;50.940;4.560;2023-02-24T12:06:18;9.30;64.20
55870;DHT22;41790;50.940;4.560;2023-02-24T12:08:49;9.30;64.60
55870;DHT22;41790;50.940;4.560;2023-02-24T12:11:42;9.10;64.50
55870;DHT22;41790;50.940;4.560;2023-02-24T12:16:46;9.20;65.50
55870;DHT22;41790;50.940;4.560;2023-02-24T12:19:34;9.10;65.10
55870;DHT22;41790;50.940;4.560;2023-02-24T12:22:25;9.00;64.90
55870;DHT22;41790;50.940;4.560;2023-02-24T12:24:53;9.00;64.90
55870;DHT22;41790;50.940;4.560;2023-02-24T12:27:45;9.00;65.20
55870;DHT22;41790;50.940;4.560;2023-02-24T12:47:26;9.50;65.50
55870;DHT22;41790;50.940;4.560;2023-02-24T12:50:08;9.60;64.80
55870;DHT22;41790;50.940;4.560;2023-02-24T12:52:53;9.60;64.40
55870;DHT22;41790;50.940;4.560;2023-02-24T12:55:31;9.60;65.40
55870;DHT22;41790;50.940;4.560;2023-02-24T12:58:16;9.50;66.30
55870;DHT22;41790;50.940;4.560;2023-02-24T13:09:26;9.60;65.90
55870;DHT22;41790;50.940;4.560;2023-02-24T13:12:16;9.60;65.90
55870;DHT22;41790;50.940;4.560;2023-02-24T13:14:44;9.50;65.80
55870;DHT22;41790;50.940;4.560;2023-02-24T13:19:40;9.40;67.50
55870;DHT22;41790;50.940;4.560;2023-02-24T13:22:18;9.40;67.20
55870;DHT22;41790;50.940;4.560;2023-02-24T13:24:55;9.30;67.90
55870;DHT22;41790;50.940;4.560;2023-02-24T13:27:33;9.30;68.10
55870;DHT22;41790;50.940;4.560;2023-02-24T13:30:26;9.40;68.00
55870;DHT22;41790;50.940;4.560;2023-02-24T13:35:42;9.10;70.00
55870;DHT22;41790;50.940;4.560;2023-02-24T13:38:32;9.20;69.30
55870;DHT22;41790;50.940;4.560;2023-02-24T13:47:22;9.20;71.10
55870;DHT22;41790;50.940;4.560;2023-02-24T14:01:07;8.60;76.70
55870;DHT22;41790;50.940;4.560;2023-02-24T14:03:35;8.60;77.70
55870;DHT22;41790;50.940;4.560;2023-02-24T14:06:03;8.70;76.90
55870;DHT22;41790;50.940;4.560;2023-02-24T14:11:12;8.70;77.20
55870;DHT22;41790;50.940;4.560;2023-02-24T14:13:43;8.70;77.60
55870;DHT22;41790;50.940;4.560;2023-02-24T14:16:18;8.60;77.90
55870;DHT22;41790;50.940;4.560;2023-02-24T14:18:52;8.60;78.40
55870;DHT22;41790;50.940;4.560;2023-02-24T14:21:24;8.60;79.10
55870;DHT22;41790;50.940;4.560;2023-02-24T14:23:55;8.70;79.60
55870;DHT22;41790;50.940;4.560;2023-02-24T14:26:21;8.50;80.30
55870;DHT22;41790;50.940;4.560;2023-02-24T14:28:56;8.40;81.10
55870;DHT22;41790;50.940;4.560;2023-02-24T14:31:23;8.40;82.80
55870;DHT22;41790;50.940;4.560;2023-02-24T14:34:02;8.40;83.70
55870;DHT22;41790;50.940;4.560;2023-02-24T14:36:37;8.50;83.90
55870;DHT22;41790;50.940;4.560;2023-02-24T14:41:34;7.90;88.20
55870;DHT22;41790;50.940;4.560;2023-02-24T14:44:22;8.00;89.40
55870;DHT22;41790;50.940;4.560;2023-02-24T14:46:50;8.00;89.80
55870;DHT22;41790;50.940;4.560;2023-02-24T14:49:25;8.00;89.50
55870;DHT22;41790;50.940;4.560;2023-02-24T14:57:17;8.40;87.40
55870;DHT22;41790;50.940;4.560;2023-02-24T14:59:47;8.20;89.70
55870;DHT22;41790;50.940;4.560;2023-02-24T15:02:17;8.20;89.40
55870;DHT22;41790;50.940;4.560;2023-02-24T15:04:45;8.20;89.20
55870;DHT22;41790;50.940;4.560;2023-02-24T15:07:22;8.20;89.40
55870;DHT22;41790;50.940;4.560;2023-02-24T15:09:51;8.00;90.10
55870;DHT22;41790;50.940;4.560;2023-02-24T15:12:28;8.00;90.00
55870;DHT22;41790;50.940;4.560;2023-02-24T15:17:29;7.90;90.10
55870;DHT22;41790;50.940;4.560;2023-02-24T15:19:56;8.10;89.50
55870;DHT22;41790;50.940;4.560;2023-02-24T15:25:08;8.00;89.50
55870;DHT22;41790;50.940;4.560;2023-02-24T15:27:35;7.90;90.60
55870;DHT22;41790;50.940;4.560;2023-02-24T15:30:20;7.90;90.50
55870;DHT22;41790;50.940;4.560;2023-02-24T15:32:59;7.90;90.50
55870;DHT22;41790;50.940;4.560;2023-02-24T15:35:26;8.10;89.10
55870;DHT22;41790;50.940;4.560;2023-02-24T15:37:53;8.20;89.90
55870;DHT22;41790;50.940;4.560;2023-02-24T15:40:24;8.20;90.10
55870;DHT22;41790;50.940;4.560;2023-02-24T15:42:55;8.30;88.90
55870;DHT22;41790;50.940;4.560;2023-02-24T15:45:33;8.50;88.60
55870;DHT22;41790;50.940;4.560;2023-02-24T15:48:01;8.50;88.10
55870;DHT22;41790;50.940;4.560;2023-02-24T15:50:28;8.50;87.80
55870;DHT22;41790;50.940;4.560;2023-02-24T15:52:58;8.40;88.90
55870;DHT22;41790;50.940;4.560;2023-02-24T15:55:27;8.30;88.50
55870;DHT22;41790;50.940;4.560;2023-02-24T15:58:01;8.30;89.30
55870;DHT22;41790;50.940;4.560;2023-02-24T16:00:28;8.30;90.00
55870;DHT22;41790;50.940;4.560;2023-02-24T16:02:56;8.40;89.30
55870;DHT22;41790;50.940;4.560;2023-02-24T16:05:22;8.30;89.40
55870;DHT22;41790;50.940;4.560;2023-02-24T16:07:49;8.20;89.90
55870;DHT22;41790;50.940;4.560;2023-02-24T16:10:23;8.20;90.10
55870;DHT22;41790;50.940;4.560;2023-02-24T16:12:53;8.30;89.50
55870;DHT22;41790;50.940;4.560;2023-02-24T16:15:24;8.30;88.60
55870;DHT22;41790;50.940;4.560;2023-02-24T16:17:51;8.30;88.90
55870;DHT22;41790;50.940;4.560;2023-02-24T16:20:23;8.30;89.20
55870;DHT22;41790;50.940;4.560;2023-02-24T16:23:00;8.20;89.10
55870;DHT22;41790;50.940;4.560;2023-02-24T16:25:27;8.20;89.40
55870;DHT22;41790;50.940;4.560;2023-02-24T16:27:54;8.30;89.00
55870;DHT22;41790;50.940;4.560;2023-02-24T16:30:24;8.30;89.10
55870;DHT22;41790;50.940;4.560;2023-02-24T16:32:51;8.30;88.30
55870;DHT22;41790;50.940;4.560;2023-02-24T16:35:17;8.30;89.20
55870;DHT22;41790;50.940;4.560;2023-02-24T16:37:45;8.30;88.70
55870;DHT22;41790;50.940;4.560;2023-02-24T16:40:24;8.40;89.00
55870;DHT22;41790;50.940;4.560;2023-02-24T16:43:03;8.30;89.40
55870;DHT22;41790;50.940;4.560;2023-02-24T16:45:32;8.40;88.50
55870;DHT22;41790;50.940;4.560;2023-02-24T16:48:01;8.30;88.80
55870;DHT22;41790;50.940;4.560;2023-02-24T16:50:37;8.30;88.90
55870;DHT22;41790;50.940;4.560;2023-02-24T16:53:21;8.30;88.70
55870;DHT22;41790;50.940;4.560;2023-02-24T16:55:50;8.20;88.40
55870;DHT22;41790;50.940;4.560;2023-02-24T16:58:16;8.20;88.00
55870;DHT22;41790;50.940;4.560;2023-02-24T17:00:57;8.30;87.00
55870;DHT22;41790;50.940;4.560;2023-02-24T17:03:42;8.30;85.80
55870;DHT22;41790;50.940;4.560;2023-02-24T17:06:12;8.30;85.70
55870;DHT22;41790;50.940;4.560;2023-02-24T17:08:39;8.20;85.90
55870;DHT22;41790;50.940;4.560;2023-02-24T17:11:17;8.10;86.20
55870;DHT22;41790;50.940;4.560;2023-02-24T17:13:43;8.00;86.40
55870;DHT22;41790;50.940;4.560;2023-02-24T17:16:10;7.90;86.20
55870;DHT22;41790;50.940;4.560;2023-02-24T17:18:38;7.70;86.30
55870;DHT22;41790;50.940;4.560;2023-02-24T17:21:04;7.80;85.90
55870;DHT22;41790;50.940;4.560;2023-02-24T17:23:30;7.80;85.70
55870;DHT22;41790;50.940;4.560;2023-02-24T17:26:00;7.80;84.70
55870;DHT22;41790;50.940;4.560;2023-02-24T17:28:27;7.70;85.10
55870;DHT22;41790;50.940;4.560;2023-02-24T17:31:03;7.70;85.00
55870;DHT22;41790;50.940;4.560;2023-02-24T17:33:39;7.80;84.60
55870;DHT22;41790;50.940;4.560;2023-02-24T17:36:17;7.80;84.40
55870;DHT22;41790;50.940;4.560;2023-02-24T17:38:51;7.90;83.90
55870;DHT22;41790;50.940;4.560;2023-02-24T17:41:17;8.00;82.90
55870;DHT22;41790;50.940;4.560;2023-02-24T17:43:53;8.00;83.30
55870;DHT22;41790;50.940;4.560;2023-02-24T17:46:24;8.10;82.80
55870;DHT22;41790;50.940;4.560;2023-02-24T17:48:56;8.10;81.70
55870;DHT22;41790;50.940;4.560;2023-02-24T17:51:32;8.20;81.40
55870;DHT22;41790;50.940;4.560;2023-02-24T17:54:00;8.10;81.10
55870;DHT22;41790;50.940;4.560;2023-02-24T17:56:28;8.00;82.00
55870;DHT22;41790;50.940;4.560;2023-02-24T17:58:54;8.00;82.20
55870;DHT22;41790;50.940;4.560;2023-02-24T18:01:26;8.10;82.00
55870;DHT22;41790;50.940;4.560;2023-02-24T18:03:53;8.00;81.60
55870;DHT22;41790;50.940;4.560;2023-02-24T18:06:20;8.10;81.80
55870;DHT22;41790;50.940;4.560;2023-02-24T18:08:46;8.10;80.60
55870;DHT22;41790;50.940;4.560;2023-02-24T18:11:15;8.00;81.40
55870;DHT22;41790;50.940;4.560;2023-02-24T18:13:41;7.80;82.30
55870;DHT22;41790;50.940;4.560;2023-02-24T18:16:09;7.80;82.70
55870;DHT22;41790;50.940;4.560;2023-02-24T18:18:36;7.70;83.10
55870;DHT22;41790;50.940;4.560;2023-02-24T18:21:03;7.60;83.90
55870;DHT22;41790;50.940;4.560;2023-02-24T18:23:31;7.70;83.70
55870;DHT22;41790;50.940;4.560;2023-02-24T18:26:01;7.80;83.60
55870;DHT22;41790;50.940;4.560;2023-02-24T18:28:28;7.90;84.00
55870;DHT22;41790;50.940;4.560;2023-02-24T18:30:53;7.90;84.40
55870;DHT22;41790;50.940;4.560;2023-02-24T18:33:19;7.90;84.60
55870;DHT22;41790;50.940;4.560;2023-02-24T18:35:46;7.90;85.10
55870;DHT22;41790;50.940;4.560;2023-02-24T18:38:11;8.10;84.20
55870;DHT22;41790;50.940;4.560;2023-02-24T18:40:37;8.20;84.00
55870;DHT22;41790;50.940;4.560;2023-02-24T18:43:03;8.20;83.90
55870;DHT22;41790;50.940;4.560;2023-02-24T18:45:30;8.10;84.60
55870;DHT22;41790;50.940;4.560;2023-02-24T18:47:56;8.30;84.80
55870;DHT22;41790;50.940;4.560;2023-02-24T18:50:32;8.30;83.70